sensor_id;sensor_type;location;lat;lon;timestamp;P1;durP1;ratioP1;P2;durP2;ratioP2
17606;SDS011;8922;52.240;20.980;2022-10-31T00:00:53;8.43;;;6.30;;
17606;SDS011;8922;52.240;20.980;2022-10-31T00:03:20;10.37;;;6.83;;
17606;SDS011;8922;52.240;20.980;2022-10-31T00:05:48;8.63;;;6.30;;
17606;SDS011;8922;52.240;20.980;2022-10-31T00:08:16;11.03;;;6.90;;
17606;SDS011;8922;52.240;20.980;2022-10-31T00:10:46;8.90;;;6.23;;
17606;SDS011;8922;52.240;20.980;2022-10-31T00:13:13;7.07;;;6.00;;
17606;SDS011;8922;52.240;20.980;2022-10-31T00:15:40;9.37;;;6.23;;
17606;SDS011;8922;52.240;20.980;2022-10-31T00:18:08;11.27;;;6.70;;
17606;SDS011;8922;52.240;20.980;2022-10-31T00:20:35;8.37;;;5.90;;
17606;SDS011;8922;52.240;20.980;2022-10-31T00:23:05;9.17;;;6.27;;
17606;SDS011;8922;52.240;20.980;2022-10-31T00:25:33;9.17;;;5.87;;
17606;SDS011;8922;52.240;20.980;2022-10-31T00:28:01;10.07;;;6.53;;
17606;SDS011;8922;52.240;20.980;2022-10-31T00:30:28;7.60;;;5.43;;
17606;SDS011;8922;52.240;20.980;2022-10-31T00:32:55;8.43;;;5.80;;
17606;SDS011;8922;52.240;20.980;2022-10-31T00:35:22;6.80;;;5.80;;
17606;SDS011;8922;52.240;20.980;2022-10-31T00:37:49;8.13;;;6.47;;
17606;SDS011;8922;52.240;20.980;2022-10-31T00:40:17;12.60;;;6.80;;
17606;SDS011;8922;52.240;20.980;2022-10-31T00:42:44;8.47;;;6.67;;
17606;SDS011;8922;52.240;20.980;2022-10-31T00:45:10;9.67;;;6.57;;
17606;SDS011;8922;52.240;20.980;2022-10-31T00:47:37;7.53;;;6.13;;
17606;SDS011;8922;52.240;20.980;2022-10-31T00:50:04;7.73;;;6.13;;
17606;SDS011;8922;52.240;20.980;2022-10-31T00:52:32;7.63;;;6.07;;
17606;SDS011;8922;52.240;20.980;2022-10-31T00:54:59;13.13;;;7.30;;
17606;SDS011;8922;52.240;20.980;2022-10-31T00:57:27;10.30;;;6.93;;
17606;SDS011;8922;52.240;20.980;2022-10-31T00:59:54;12.60;;;7.43;;
17606;SDS011;8922;52.240;20.980;2022-10-31T01:02:21;11.40;;;7.73;;
17606;SDS011;8922;52.240;20.980;2022-10-31T01:04:47;13.23;;;8.03;;
17606;SDS011;8922;52.240;20.980;2022-10-31T01:07:14;14.77;;;8.80;;
17606;SDS011;8922;52.240;20.980;2022-10-31T01:09:41;12.13;;;8.20;;
17606;SDS011;8922;52.240;20.980;2022-10-31T01:12:08;10.20;;;7.90;;
17606;SDS011;8922;52.240;20.980;2022-10-31T01:14:36;11.10;;;7.50;;
17606;SDS011;8922;52.240;20.980;2022-10-31T01:17:03;13.17;;;8.47;;
17606;SDS011;8922;52.240;20.980;2022-10-31T01:19:29;11.87;;;7.73;;
17606;SDS011;8922;52.240;20.980;2022-10-31T01:21:56;9.57;;;8.17;;
17606;SDS011;8922;52.240;20.980;2022-10-31T01:24:23;11.33;;;7.57;;
17606;SDS011;8922;52.240;20.980;2022-10-31T01:26:50;9.33;;;7.03;;
17606;SDS011;8922;52.240;20.980;2022-10-31T01:29:16;9.83;;;8.03;;
17606;SDS011;8922;52.240;20.980;2022-10-31T01:31:44;11.80;;;7.87;;
17606;SDS011;8922;52.240;20.980;2022-10-31T01:34:12;10.67;;;7.47;;
17606;SDS011;8922;52.240;20.980;2022-10-31T01:36:40;12.87;;;7.87;;
17606;SDS011;8922;52.240;20.980;2022-10-31T01:39:08;11.50;;;8.03;;
17606;SDS011;8922;52.240;20.980;2022-10-31T01:41:37;12.73;;;7.87;;
17606;SDS011;8922;52.240;20.980;2022-10-31T01:47:07;10.03;;;7.27;;
17606;SDS011;8922;52.240;20.980;2022-10-31T01:49:40;9.67;;;6.90;;
17606;SDS011;8922;52.240;20.980;2022-10-31T01:52:12;10.50;;;7.27;;
17606;SDS011;8922;52.240;20.980;2022-10-31T01:54:43;11.90;;;8.00;;
17606;SDS011;8922;52.240;20.980;2022-10-31T01:57:14;10.87;;;8.50;;
17606;SDS011;8922;52.240;20.980;2022-10-31T01:59:42;11.10;;;7.63;;
17606;SDS011;8922;52.240;20.980;2022-10-31T02:02:14;10.00;;;8.10;;
17606;SDS011;8922;52.240;20.980;2022-10-31T02:04:43;11.80;;;8.60;;
17606;SDS011;8922;52.240;20.980;2022-10-31T02:07:12;10.20;;;8.40;;
17606;SDS011;8922;52.240;20.980;2022-10-31T02:09:42;12.63;;;8.67;;
17606;SDS011;8922;52.240;20.980;2022-10-31T02:12:11;15.53;;;9.83;;
17606;SDS011;8922;52.240;20.980;2022-10-31T02:14:39;12.80;;;8.80;;
17606;SDS011;8922;52.240;20.980;2022-10-31T02:17:06;13.07;;;9.63;;
17606;SDS011;8922;52.240;20.980;2022-10-31T02:19:35;11.80;;;9.13;;
17606;SDS011;8922;52.240;20.980;2022-10-31T02:22:09;13.37;;;9.33;;
17606;SDS011;8922;52.240;20.980;2022-10-31T02:24:45;16.27;;;9.40;;
17606;SDS011;8922;52.240;20.980;2022-10-31T02:30:20;11.03;;;8.80;;
17606;SDS011;8922;52.240;20.980;2022-10-31T02:32:56;18.10;;;9.80;;
17606;SDS011;8922;52.240;20.980;2022-10-31T02:35:35;16.40;;;9.43;;
17606;SDS011;8922;52.240;20.980;2022-10-31T02:38:13;14.33;;;9.37;;
17606;SDS011;8922;52.240;20.980;2022-10-31T02:40:49;11.40;;;8.90;;
17606;SDS011;8922;52.240;20.980;2022-10-31T02:43:20;13.17;;;9.30;;
17606;SDS011;8922;52.240;20.980;2022-10-31T02:45:54;13.60;;;9.00;;
17606;SDS011;8922;52.240;20.980;2022-10-31T02:48:28;13.40;;;9.53;;
17606;SDS011;8922;52.240;20.980;2022-10-31T02:50:57;14.23;;;9.30;;
17606;SDS011;8922;52.240;20.980;2022-10-31T02:53:26;13.40;;;9.63;;
17606;SDS011;8922;52.240;20.980;2022-10-31T02:55:58;15.40;;;9.60;;
17606;SDS011;8922;52.240;20.980;2022-10-31T02:58:28;14.10;;;9.17;;
17606;SDS011;8922;52.240;20.980;2022-10-31T03:01:01;15.37;;;10.80;;
17606;SDS011;8922;52.240;20.980;2022-10-31T03:03:42;12.13;;;9.60;;
17606;SDS011;8922;52.240;20.980;2022-10-31T03:06:20;11.73;;;9.37;;
17606;SDS011;8922;52.240;20.980;2022-10-31T03:08:54;12.53;;;9.50;;
17606;SDS011;8922;52.240;20.980;2022-10-31T03:11:28;11.00;;;9.00;;
17606;SDS011;8922;52.240;20.980;2022-10-31T03:14:00;14.97;;;9.47;;
17606;SDS011;8922;52.240;20.980;2022-10-31T03:16:34;13.93;;;10.37;;
17606;SDS011;8922;52.240;20.980;2022-10-31T03:19:10;14.30;;;9.97;;
17606;SDS011;8922;52.240;20.980;2022-10-31T03:21:40;17.93;;;11.10;;
17606;SDS011;8922;52.240;20.980;2022-10-31T03:24:11;12.47;;;9.97;;
17606;SDS011;8922;52.240;20.980;2022-10-31T03:26:40;14.50;;;9.83;;
17606;SDS011;8922;52.240;20.980;2022-10-31T03:29:11;14.53;;;10.33;;
17606;SDS011;8922;52.240;20.980;2022-10-31T03:31:43;13.97;;;10.47;;
17606;SDS011;8922;52.240;20.980;2022-10-31T03:34:14;17.97;;;10.50;;
17606;SDS011;8922;52.240;20.980;2022-10-31T03:36:43;16.27;;;11.03;;
17606;SDS011;8922;52.240;20.980;2022-10-31T03:39:13;15.27;;;10.27;;
17606;SDS011;8922;52.240;20.980;2022-10-31T03:41:44;16.47;;;11.50;;
17606;SDS011;8922;52.240;20.980;2022-10-31T03:44:15;16.47;;;11.30;;
17606;SDS011;8922;52.240;20.980;2022-10-31T03:46:45;14.63;;;11.07;;
17606;SDS011;8922;52.240;20.980;2022-10-31T03:49:12;11.53;;;9.97;;
17606;SDS011;8922;52.240;20.980;2022-10-31T03:51:42;14.13;;;10.33;;
17606;SDS011;8922;52.240;20.980;2022-10-31T03:54:14;13.13;;;9.77;;
17606;SDS011;8922;52.240;20.980;2022-10-31T03:56:48;11.63;;;9.47;;
17606;SDS011;8922;52.240;20.980;2022-10-31T03:59:20;14.60;;;11.47;;
17606;SDS011;8922;52.240;20.980;2022-10-31T04:01:51;15.80;;;11.80;;
17606;SDS011;8922;52.240;20.980;2022-10-31T04:04:23;15.30;;;11.70;;
17606;SDS011;8922;52.240;20.980;2022-10-31T04:06:51;17.53;;;12.60;;
17606;SDS011;8922;52.240;20.980;2022-10-31T04:09:19;17.23;;;12.10;;
17606;SDS011;8922;52.240;20.980;2022-10-31T04:11:48;18.80;;;13.03;;
17606;SDS011;8922;52.240;20.980;2022-10-31T04:14:19;17.83;;;12.47;;
17606;SDS011;8922;52.240;20.980;2022-10-31T04:16:46;19.60;;;13.23;;
17606;SDS011;8922;52.240;20.980;2022-10-31T04:19:13;16.23;;;12.80;;
17606;SDS011;8922;52.240;20.980;2022-10-31T04:21:42;17.27;;;12.00;;
17606;SDS011;8922;52.240;20.980;2022-10-31T04:24:09;15.43;;;11.50;;
17606;SDS011;8922;52.240;20.980;2022-10-31T04:26:36;15.93;;;12.20;;
17606;SDS011;8922;52.240;20.980;2022-10-31T04:29:03;14.77;;;12.13;;
17606;SDS011;8922;52.240;20.980;2022-10-31T04:31:30;14.47;;;11.10;;
17606;SDS011;8922;52.240;20.980;2022-10-31T04:33:56;15.83;;;11.17;;
17606;SDS011;8922;52.240;20.980;2022-10-31T04:36:23;17.53;;;10.53;;
17606;SDS011;8922;52.240;20.980;2022-10-31T04:38:51;13.47;;;10.47;;
17606;SDS011;8922;52.240;20.980;2022-10-31T04:41:18;16.50;;;12.00;;
17606;SDS011;8922;52.240;20.980;2022-10-31T04:43:45;15.47;;;10.47;;
17606;SDS011;8922;52.240;20.980;2022-10-31T04:46:12;19.90;;;12.03;;
17606;SDS011;8922;52.240;20.980;2022-10-31T04:48:38;14.77;;;11.47;;
17606;SDS011;8922;52.240;20.980;2022-10-31T04:51:05;14.20;;;11.40;;
17606;SDS011;8922;52.240;20.980;2022-10-31T04:53:32;15.47;;;11.07;;
17606;SDS011;8922;52.240;20.980;2022-10-31T04:56:00;14.60;;;10.27;;
17606;SDS011;8922;52.240;20.980;2022-10-31T04:58:27;14.87;;;11.13;;
17606;SDS011;8922;52.240;20.980;2022-10-31T05:00:54;14.83;;;10.73;;
17606;SDS011;8922;52.240;20.980;2022-10-31T05:03:21;15.93;;;11.40;;
17606;SDS011;8922;52.240;20.980;2022-10-31T05:05:48;14.87;;;11.60;;
17606;SDS011;8922;52.240;20.980;2022-10-31T05:08:15;16.13;;;11.93;;
17606;SDS011;8922;52.240;20.980;2022-10-31T05:10:42;20.20;;;12.37;;
17606;SDS011;8922;52.240;20.980;2022-10-31T05:13:10;16.47;;;12.20;;
17606;SDS011;8922;52.240;20.980;2022-10-31T05:15:37;17.50;;;10.90;;
17606;SDS011;8922;52.240;20.980;2022-10-31T05:18:04;14.60;;;11.03;;
17606;SDS011;8922;52.240;20.980;2022-10-31T05:20:31;18.43;;;11.53;;
17606;SDS011;8922;52.240;20.980;2022-10-31T05:22:58;16.67;;;10.57;;
17606;SDS011;8922;52.240;20.980;2022-10-31T05:25:26;16.90;;;11.30;;
17606;SDS011;8922;52.240;20.980;2022-10-31T05:27:54;14.43;;;10.87;;
17606;SDS011;8922;52.240;20.980;2022-10-31T05:30:23;14.57;;;10.10;;
17606;SDS011;8922;52.240;20.980;2022-10-31T05:32:52;13.93;;;10.30;;
17606;SDS011;8922;52.240;20.980;2022-10-31T05:35:19;15.03;;;9.90;;
17606;SDS011;8922;52.240;20.980;2022-10-31T05:37:48;12.83;;;10.80;;
17606;SDS011;8922;52.240;20.980;2022-10-31T05:40:15;14.00;;;10.67;;
17606;SDS011;8922;52.240;20.980;2022-10-31T05:42:43;15.33;;;11.07;;
17606;SDS011;8922;52.240;20.980;2022-10-31T05:45:11;14.57;;;11.10;;
17606;SDS011;8922;52.240;20.980;2022-10-31T05:47:40;13.33;;;10.03;;
17606;SDS011;8922;52.240;20.980;2022-10-31T05:50:08;12.80;;;9.00;;
17606;SDS011;8922;52.240;20.980;2022-10-31T05:52:35;14.03;;;9.67;;
17606;SDS011;8922;52.240;20.980;2022-10-31T05:55:03;14.70;;;10.60;;
17606;SDS011;8922;52.240;20.980;2022-10-31T05:57:31;11.80;;;9.60;;
17606;SDS011;8922;52.240;20.980;2022-10-31T05:59:58;12.57;;;10.30;;
17606;SDS011;8922;52.240;20.980;2022-10-31T06:02:25;12.60;;;10.10;;
17606;SDS011;8922;52.240;20.980;2022-10-31T06:04:57;13.07;;;10.20;;
17606;SDS011;8922;52.240;20.980;2022-10-31T06:07:24;10.90;;;9.20;;
17606;SDS011;8922;52.240;20.980;2022-10-31T06:09:51;15.10;;;10.63;;
17606;SDS011;8922;52.240;20.980;2022-10-31T06:12:18;12.80;;;9.97;;
17606;SDS011;8922;52.240;20.980;2022-10-31T06:14:44;13.40;;;9.73;;
17606;SDS011;8922;52.240;20.980;2022-10-31T06:17:11;13.23;;;9.73;;
17606;SDS011;8922;52.240;20.980;2022-10-31T06:19:38;14.67;;;10.00;;
17606;SDS011;8922;52.240;20.980;2022-10-31T06:22:06;14.57;;;10.17;;
17606;SDS011;8922;52.240;20.980;2022-10-31T06:24:33;17.87;;;10.70;;
17606;SDS011;8922;52.240;20.980;2022-10-31T06:26:59;12.37;;;9.33;;
17606;SDS011;8922;52.240;20.980;2022-10-31T06:29:26;13.10;;;10.67;;
17606;SDS011;8922;52.240;20.980;2022-10-31T06:31:53;15.87;;;10.43;;
17606;SDS011;8922;52.240;20.980;2022-10-31T06:34:20;13.83;;;11.70;;
17606;SDS011;8922;52.240;20.980;2022-10-31T06:36:47;15.30;;;10.70;;
17606;SDS011;8922;52.240;20.980;2022-10-31T06:39:15;14.67;;;11.50;;
17606;SDS011;8922;52.240;20.980;2022-10-31T06:41:41;16.43;;;11.23;;
17606;SDS011;8922;52.240;20.980;2022-10-31T06:44:08;16.83;;;12.37;;
17606;SDS011;8922;52.240;20.980;2022-10-31T06:46:35;18.20;;;12.57;;
17606;SDS011;8922;52.240;20.980;2022-10-31T06:49:02;13.63;;;11.40;;
17606;SDS011;8922;52.240;20.980;2022-10-31T06:51:28;16.53;;;12.50;;
17606;SDS011;8922;52.240;20.980;2022-10-31T06:53:55;16.20;;;12.03;;
17606;SDS011;8922;52.240;20.980;2022-10-31T06:56:23;16.60;;;12.40;;
17606;SDS011;8922;52.240;20.980;2022-10-31T06:58:50;15.23;;;11.87;;
17606;SDS011;8922;52.240;20.980;2022-10-31T07:01:16;15.23;;;12.13;;
17606;SDS011;8922;52.240;20.980;2022-10-31T07:03:43;17.00;;;12.23;;
17606;SDS011;8922;52.240;20.980;2022-10-31T07:06:10;20.77;;;13.30;;
17606;SDS011;8922;52.240;20.980;2022-10-31T07:08:37;17.57;;;12.20;;
17606;SDS011;8922;52.240;20.980;2022-10-31T07:11:03;15.90;;;12.07;;
17606;SDS011;8922;52.240;20.980;2022-10-31T07:13:32;16.63;;;11.87;;
17606;SDS011;8922;52.240;20.980;2022-10-31T07:15:59;16.10;;;11.30;;
17606;SDS011;8922;52.240;20.980;2022-10-31T07:18:28;15.70;;;11.27;;
17606;SDS011;8922;52.240;20.980;2022-10-31T07:20:55;14.63;;;10.07;;
17606;SDS011;8922;52.240;20.980;2022-10-31T07:23:21;17.30;;;10.50;;
17606;SDS011;8922;52.240;20.980;2022-10-31T07:25:48;14.67;;;10.40;;
17606;SDS011;8922;52.240;20.980;2022-10-31T07:28:21;13.70;;;10.43;;
17606;SDS011;8922;52.240;20.980;2022-10-31T07:30:50;14.37;;;10.13;;
17606;SDS011;8922;52.240;20.980;2022-10-31T07:33:17;13.90;;;10.60;;
17606;SDS011;8922;52.240;20.980;2022-10-31T07:35:44;14.23;;;10.87;;
17606;SDS011;8922;52.240;20.980;2022-10-31T07:38:12;15.37;;;10.73;;
17606;SDS011;8922;52.240;20.980;2022-10-31T07:40:40;16.50;;;10.60;;
17606;SDS011;8922;52.240;20.980;2022-10-31T07:43:08;13.70;;;10.57;;
17606;SDS011;8922;52.240;20.980;2022-10-31T07:45:36;16.37;;;10.63;;
17606;SDS011;8922;52.240;20.980;2022-10-31T07:48:05;13.10;;;10.20;;
17606;SDS011;8922;52.240;20.980;2022-10-31T07:50:32;14.57;;;10.33;;
17606;SDS011;8922;52.240;20.980;2022-10-31T07:52:59;14.17;;;10.33;;
17606;SDS011;8922;52.240;20.980;2022-10-31T07:55:26;13.33;;;9.60;;
17606;SDS011;8922;52.240;20.980;2022-10-31T07:57:57;13.93;;;10.20;;
17606;SDS011;8922;52.240;20.980;2022-10-31T08:00:25;15.17;;;10.47;;
17606;SDS011;8922;52.240;20.980;2022-10-31T08:02:58;16.20;;;11.10;;
17606;SDS011;8922;52.240;20.980;2022-10-31T08:05:27;15.57;;;11.73;;
17606;SDS011;8922;52.240;20.980;2022-10-31T08:07:54;16.97;;;11.93;;
17606;SDS011;8922;52.240;20.980;2022-10-31T08:10:22;15.33;;;11.37;;
17606;SDS011;8922;52.240;20.980;2022-10-31T08:12:54;16.67;;;11.73;;
17606;SDS011;8922;52.240;20.980;2022-10-31T08:15:22;17.93;;;12.20;;
17606;SDS011;8922;52.240;20.980;2022-10-31T08:17:49;18.07;;;12.77;;
17606;SDS011;8922;52.240;20.980;2022-10-31T08:20:16;15.17;;;11.63;;
17606;SDS011;8922;52.240;20.980;2022-10-31T08:22:44;18.87;;;12.90;;
17606;SDS011;8922;52.240;20.980;2022-10-31T08:25:19;16.15;;;12.98;;
17606;SDS011;8922;52.240;20.980;2022-10-31T08:27:48;17.77;;;11.93;;
17606;SDS011;8922;52.240;20.980;2022-10-31T08:30:16;17.52;;;12.07;;
17606;SDS011;8922;52.240;20.980;2022-10-31T08:32:42;15.38;;;11.73;;
17606;SDS011;8922;52.240;20.980;2022-10-31T08:35:09;14.80;;;11.70;;
17606;SDS011;8922;52.240;20.980;2022-10-31T08:37:36;15.75;;;12.45;;
17606;SDS011;8922;52.240;20.980;2022-10-31T08:40:05;15.27;;;10.70;;
17606;SDS011;8922;52.240;20.980;2022-10-31T08:42:32;16.95;;;11.38;;
17606;SDS011;8922;52.240;20.980;2022-10-31T08:44:59;12.98;;;10.02;;
17606;SDS011;8922;52.240;20.980;2022-10-31T08:47:26;14.60;;;10.60;;
17606;SDS011;8922;52.240;20.980;2022-10-31T08:49:52;13.55;;;9.00;;
17606;SDS011;8922;52.240;20.980;2022-10-31T08:52:22;11.93;;;9.48;;
17606;SDS011;8922;52.240;20.980;2022-10-31T08:54:49;12.68;;;9.95;;
17606;SDS011;8922;52.240;20.980;2022-10-31T08:57:17;12.07;;;9.68;;
17606;SDS011;8922;52.240;20.980;2022-10-31T08:59:44;12.65;;;9.40;;
17606;SDS011;8922;52.240;20.980;2022-10-31T09:02:10;11.40;;;9.40;;
17606;SDS011;8922;52.240;20.980;2022-10-31T09:04:37;11.10;;;9.23;;
17606;SDS011;8922;52.240;20.980;2022-10-31T09:07:04;10.45;;;9.27;;
17606;SDS011;8922;52.240;20.980;2022-10-31T09:09:31;9.80;;;8.75;;
17606;SDS011;8922;52.240;20.980;2022-10-31T09:11:57;10.55;;;9.32;;
17606;SDS011;8922;52.240;20.980;2022-10-31T09:14:26;12.25;;;9.75;;
17606;SDS011;8922;52.240;20.980;2022-10-31T09:16:53;12.48;;;9.93;;
17606;SDS011;8922;52.240;20.980;2022-10-31T09:19:19;11.45;;;9.85;;
17606;SDS011;8922;52.240;20.980;2022-10-31T09:21:46;11.82;;;9.55;;
17606;SDS011;8922;52.240;20.980;2022-10-31T09:24:13;11.55;;;9.35;;
17606;SDS011;8922;52.240;20.980;2022-10-31T09:26:40;11.13;;;9.70;;
17606;SDS011;8922;52.240;20.980;2022-10-31T09:29:06;12.30;;;9.50;;
17606;SDS011;8922;52.240;20.980;2022-10-31T09:31:35;12.18;;;9.75;;
17606;SDS011;8922;52.240;20.980;2022-10-31T09:34:02;11.02;;;9.82;;
17606;SDS011;8922;52.240;20.980;2022-10-31T09:36:29;16.90;;;10.32;;
17606;SDS011;8922;52.240;20.980;2022-10-31T09:38:56;11.90;;;9.82;;
17606;SDS011;8922;52.240;20.980;2022-10-31T09:41:24;11.30;;;9.77;;
17606;SDS011;8922;52.240;20.980;2022-10-31T09:43:58;11.70;;;10.05;;
17606;SDS011;8922;52.240;20.980;2022-10-31T09:46:37;11.77;;;10.57;;
17606;SDS011;8922;52.240;20.980;2022-10-31T09:49:20;11.93;;;10.27;;
17606;SDS011;8922;52.240;20.980;2022-10-31T09:52:01;11.65;;;10.45;;
17606;SDS011;8922;52.240;20.980;2022-10-31T09:54:35;11.65;;;10.20;;
17606;SDS011;8922;52.240;20.980;2022-10-31T09:57:10;12.07;;;10.70;;
17606;SDS011;8922;52.240;20.980;2022-10-31T09:59:40;11.57;;;9.85;;
17606;SDS011;8922;52.240;20.980;2022-10-31T10:02:13;11.95;;;9.95;;
17606;SDS011;8922;52.240;20.980;2022-10-31T10:04:44;12.75;;;10.93;;
17606;SDS011;8922;52.240;20.980;2022-10-31T10:07:18;12.68;;;11.38;;
17606;SDS011;8922;52.240;20.980;2022-10-31T10:09:51;12.05;;;10.70;;
17606;SDS011;8922;52.240;20.980;2022-10-31T10:12:19;15.63;;;10.93;;
17606;SDS011;8922;52.240;20.980;2022-10-31T10:15:02;11.90;;;10.70;;
17606;SDS011;8922;52.240;20.980;2022-10-31T10:17:53;11.52;;;10.35;;
17606;SDS011;8922;52.240;20.980;2022-10-31T10:20:30;11.27;;;10.13;;
17606;SDS011;8922;52.240;20.980;2022-10-31T10:23:07;11.65;;;10.45;;
17606;SDS011;8922;52.240;20.980;2022-10-31T10:25:49;11.77;;;10.60;;
17606;SDS011;8922;52.240;20.980;2022-10-31T10:28:25;12.57;;;10.60;;
17606;SDS011;8922;52.240;20.980;2022-10-31T10:30:57;11.45;;;10.35;;
17606;SDS011;8922;52.240;20.980;2022-10-31T10:33:31;12.25;;;9.98;;
17606;SDS011;8922;52.240;20.980;2022-10-31T10:36:03;11.85;;;10.77;;
17606;SDS011;8922;52.240;20.980;2022-10-31T10:38:34;11.50;;;10.20;;
17606;SDS011;8922;52.240;20.980;2022-10-31T10:41:05;11.45;;;10.25;;
17606;SDS011;8922;52.240;20.980;2022-10-31T10:43:37;13.52;;;10.85;;
17606;SDS011;8922;52.240;20.980;2022-10-31T10:49:17;13.88;;;11.57;;
17606;SDS011;8922;52.240;20.980;2022-10-31T10:51:46;12.43;;;11.13;;
17606;SDS011;8922;52.240;20.980;2022-10-31T10:57:27;13.73;;;12.43;;
17606;SDS011;8922;52.240;20.980;2022-10-31T11:00:16;13.43;;;12.13;;
17606;SDS011;8922;52.240;20.980;2022-10-31T11:02:44;12.95;;;11.30;;
17606;SDS011;8922;52.240;20.980;2022-10-31T11:05:15;15.00;;;12.43;;
17606;SDS011;8922;52.240;20.980;2022-10-31T11:07:48;12.30;;;11.07;;
17606;SDS011;8922;52.240;20.980;2022-10-31T11:10:17;12.55;;;11.35;;
17606;SDS011;8922;52.240;20.980;2022-10-31T11:12:44;12.63;;;11.43;;
17606;SDS011;8922;52.240;20.980;2022-10-31T11:15:23;11.70;;;10.60;;
17606;SDS011;8922;52.240;20.980;2022-10-31T11:17:52;12.25;;;11.00;;
17606;SDS011;8922;52.240;20.980;2022-10-31T11:20:27;11.73;;;10.68;;
17606;SDS011;8922;52.240;20.980;2022-10-31T11:23:00;12.20;;;10.85;;
17606;SDS011;8922;52.240;20.980;2022-10-31T11:25:30;12.07;;;10.80;;
17606;SDS011;8922;52.240;20.980;2022-10-31T11:28:00;11.20;;;9.98;;
17606;SDS011;8922;52.240;20.980;2022-10-31T11:30:28;13.75;;;11.10;;
17606;SDS011;8922;52.240;20.980;2022-10-31T11:32:56;11.77;;;10.68;;
17606;SDS011;8922;52.240;20.980;2022-10-31T11:35:24;11.45;;;10.35;;
17606;SDS011;8922;52.240;20.980;2022-10-31T11:37:53;11.70;;;10.63;;
17606;SDS011;8922;52.240;20.980;2022-10-31T11:40:24;11.52;;;10.43;;
17606;SDS011;8922;52.240;20.980;2022-10-31T11:42:54;12.45;;;10.65;;
17606;SDS011;8922;52.240;20.980;2022-10-31T11:45:27;13.43;;;12.10;;
17606;SDS011;8922;52.240;20.980;2022-10-31T11:47:57;14.32;;;12.95;;
17606;SDS011;8922;52.240;20.980;2022-10-31T11:50:32;13.43;;;11.57;;
17606;SDS011;8922;52.240;20.980;2022-10-31T11:53:03;13.70;;;12.10;;
17606;SDS011;8922;52.240;20.980;2022-10-31T11:55:38;17.27;;;12.02;;
17606;SDS011;8922;52.240;20.980;2022-10-31T11:58:18;13.90;;;11.48;;
17606;SDS011;8922;52.240;20.980;2022-10-31T12:00:48;16.20;;;11.07;;
17606;SDS011;8922;52.240;20.980;2022-10-31T12:03:20;14.05;;;11.40;;
17606;SDS011;8922;52.240;20.980;2022-10-31T12:05:56;19.90;;;12.02;;
17606;SDS011;8922;52.240;20.980;2022-10-31T12:08:26;16.83;;;12.63;;
17606;SDS011;8922;52.240;20.980;2022-10-31T12:10:57;19.65;;;12.70;;
17606;SDS011;8922;52.240;20.980;2022-10-31T12:13:31;16.52;;;12.90;;
17606;SDS011;8922;52.240;20.980;2022-10-31T12:16:00;16.40;;;12.43;;
17606;SDS011;8922;52.240;20.980;2022-10-31T12:18:40;18.33;;;12.65;;
17606;SDS011;8922;52.240;20.980;2022-10-31T12:21:24;15.20;;;12.50;;
17606;SDS011;8922;52.240;20.980;2022-10-31T12:24:05;15.95;;;12.60;;
17606;SDS011;8922;52.240;20.980;2022-10-31T12:26:39;18.98;;;13.50;;
17606;SDS011;8922;52.240;20.980;2022-10-31T12:29:19;18.08;;;13.88;;
17606;SDS011;8922;52.240;20.980;2022-10-31T12:31:58;17.60;;;14.00;;
17606;SDS011;8922;52.240;20.980;2022-10-31T12:34:41;15.35;;;12.63;;
17606;SDS011;8922;52.240;20.980;2022-10-31T12:37:24;17.08;;;13.27;;
17606;SDS011;8922;52.240;20.980;2022-10-31T12:40:05;17.33;;;13.27;;
17606;SDS011;8922;52.240;20.980;2022-10-31T12:42:57;18.50;;;13.75;;
17606;SDS011;8922;52.240;20.980;2022-10-31T12:45:45;19.30;;;13.98;;
17606;SDS011;8922;52.240;20.980;2022-10-31T12:48:24;19.67;;;13.80;;
17606;SDS011;8922;52.240;20.980;2022-10-31T12:51:11;24.88;;;14.27;;
17606;SDS011;8922;52.240;20.980;2022-10-31T12:53:52;19.48;;;13.52;;
17606;SDS011;8922;52.240;20.980;2022-10-31T12:56:36;20.23;;;14.80;;
17606;SDS011;8922;52.240;20.980;2022-10-31T12:59:10;20.60;;;14.77;;
17606;SDS011;8922;52.240;20.980;2022-10-31T13:01:44;22.85;;;16.38;;
17606;SDS011;8922;52.240;20.980;2022-10-31T13:04:15;24.38;;;17.38;;
17606;SDS011;8922;52.240;20.980;2022-10-31T13:06:47;23.40;;;17.63;;
17606;SDS011;8922;52.240;20.980;2022-10-31T13:09:19;23.88;;;17.25;;
17606;SDS011;8922;52.240;20.980;2022-10-31T13:11:51;22.95;;;16.60;;
17606;SDS011;8922;52.240;20.980;2022-10-31T13:14:23;23.30;;;16.67;;
17606;SDS011;8922;52.240;20.980;2022-10-31T13:16:54;24.20;;;18.38;;
17606;SDS011;8922;52.240;20.980;2022-10-31T13:19:23;22.42;;;17.65;;
17606;SDS011;8922;52.240;20.980;2022-10-31T13:21:53;21.83;;;16.48;;
17606;SDS011;8922;52.240;20.980;2022-10-31T13:24:28;23.45;;;17.42;;
17606;SDS011;8922;52.240;20.980;2022-10-31T13:26:59;25.50;;;18.27;;
17606;SDS011;8922;52.240;20.980;2022-10-31T13:29:29;21.88;;;16.75;;
17606;SDS011;8922;52.240;20.980;2022-10-31T13:31:59;24.63;;;17.20;;
17606;SDS011;8922;52.240;20.980;2022-10-31T13:34:30;25.65;;;18.02;;
17606;SDS011;8922;52.240;20.980;2022-10-31T13:37:02;25.25;;;18.02;;
17606;SDS011;8922;52.240;20.980;2022-10-31T13:39:38;23.35;;;17.50;;
17606;SDS011;8922;52.240;20.980;2022-10-31T13:42:13;22.00;;;18.40;;
17606;SDS011;8922;52.240;20.980;2022-10-31T13:44:48;24.75;;;17.15;;
17606;SDS011;8922;52.240;20.980;2022-10-31T13:47:20;23.38;;;17.42;;
17606;SDS011;8922;52.240;20.980;2022-10-31T13:49:49;24.60;;;17.92;;
17606;SDS011;8922;52.240;20.980;2022-10-31T13:52:21;23.90;;;17.50;;
17606;SDS011;8922;52.240;20.980;2022-10-31T13:54:52;23.63;;;17.33;;
17606;SDS011;8922;52.240;20.980;2022-10-31T13:57:28;22.40;;;16.55;;
17606;SDS011;8922;52.240;20.980;2022-10-31T13:59:58;26.00;;;18.50;;
17606;SDS011;8922;52.240;20.980;2022-10-31T14:02:28;23.40;;;17.52;;
17606;SDS011;8922;52.240;20.980;2022-10-31T14:04:57;29.75;;;21.48;;
17606;SDS011;8922;52.240;20.980;2022-10-31T14:07:26;24.48;;;18.42;;
17606;SDS011;8922;52.240;20.980;2022-10-31T14:09:56;23.58;;;17.52;;
17606;SDS011;8922;52.240;20.980;2022-10-31T14:12:29;26.65;;;18.20;;
17606;SDS011;8922;52.240;20.980;2022-10-31T14:15:00;29.88;;;19.63;;
17606;SDS011;8922;52.240;20.980;2022-10-31T14:17:33;25.73;;;19.40;;
17606;SDS011;8922;52.240;20.980;2022-10-31T14:20:25;23.75;;;17.95;;
17606;SDS011;8922;52.240;20.980;2022-10-31T14:28:47;24.55;;;18.75;;
17606;SDS011;8922;52.240;20.980;2022-10-31T14:31:26;27.23;;;18.60;;
17606;SDS011;8922;52.240;20.980;2022-10-31T14:33:58;26.40;;;19.50;;
17606;SDS011;8922;52.240;20.980;2022-10-31T14:36:28;27.27;;;19.25;;
17606;SDS011;8922;52.240;20.980;2022-10-31T14:39:03;28.40;;;19.25;;
17606;SDS011;8922;52.240;20.980;2022-10-31T14:41:59;31.38;;;19.85;;
17606;SDS011;8922;52.240;20.980;2022-10-31T14:44:50;28.50;;;19.55;;
17606;SDS011;8922;52.240;20.980;2022-10-31T14:47:45;26.00;;;19.50;;
17606;SDS011;8922;52.240;20.980;2022-10-31T14:50:41;26.77;;;19.20;;
17606;SDS011;8922;52.240;20.980;2022-10-31T14:53:12;25.40;;;19.03;;
17606;SDS011;8922;52.240;20.980;2022-10-31T14:55:45;26.30;;;18.17;;
17606;SDS011;8922;52.240;20.980;2022-10-31T14:58:17;25.77;;;17.43;;
17606;SDS011;8922;52.240;20.980;2022-10-31T15:00:46;24.70;;;18.10;;
17606;SDS011;8922;52.240;20.980;2022-10-31T15:03:14;26.07;;;18.20;;